createdAt,value
2022-08-08T00:02:03.697Z,19.46
2022-08-08T00:04:40.378Z,19.39
2022-08-08T00:07:23.789Z,19.32
2022-08-08T00:10:08.147Z,19.31
2022-08-08T00:12:48.533Z,19.28
2022-08-08T00:15:57.104Z,19.22
2022-08-08T00:18:27.180Z,19.21
2022-08-08T00:20:59.217Z,19.14
2022-08-08T00:23:43.404Z,19.15
2022-08-08T00:26:29.385Z,19.20
2022-08-08T00:29:08.104Z,19.16
2022-08-08T00:32:16.410Z,19.02
2022-08-08T00:35:10.316Z,19.16
2022-08-08T00:38:06.558Z,19.10
2022-08-08T00:41:14.471Z,19.13
2022-08-08T00:44:25.820Z,19.15
2022-08-08T00:47:36.770Z,19.20
2022-08-08T00:51:06.958Z,19.24
2022-08-08T00:54:13.718Z,19.20
2022-08-08T00:57:19.906Z,19.17
2022-08-08T01:00:11.769Z,19.11
2022-08-08T01:04:02.252Z,19.32
2022-08-08T01:07:05.761Z,19.36
2022-08-08T01:10:15.529Z,19.41
2022-08-08T01:13:23.059Z,19.47
2022-08-08T01:16:37.353Z,19.48
2022-08-08T01:19:51.968Z,19.50
2022-08-08T01:22:58.274Z,19.41
2022-08-08T01:26:11.429Z,19.33
2022-08-08T01:29:17.827Z,19.23
2022-08-08T01:32:34.664Z,19.14
2022-08-08T01:35:29.592Z,19.14
2022-08-08T01:38:20.908Z,19.10
2022-08-08T01:41:04.432Z,19.09
2022-08-08T01:43:53.013Z,19.13
2022-08-08T01:46:42.284Z,19.17
2022-08-08T01:49:37.809Z,19.10
2022-08-08T01:54:29.804Z,19.17
2022-08-08T01:56:26.608Z,19.21
2022-08-08T01:58:46.502Z,19.31
2022-08-08T02:02:02.976Z,19.23
2022-08-08T02:04:47.782Z,19.29
2022-08-08T02:07:41.503Z,19.35
2022-08-08T02:10:37.297Z,19.45
2022-08-08T02:13:54.623Z,19.35
2022-08-08T02:16:22.917Z,19.32
2022-08-08T02:19:26.845Z,19.25
2022-08-08T02:22:20.286Z,19.11
2022-08-08T02:25:11.704Z,18.95
2022-08-08T02:27:56.829Z,18.87
2022-08-08T02:30:50.017Z,19.03
2022-08-08T02:34:08.140Z,19.18
2022-08-08T02:36:56.314Z,19.13
2022-08-08T02:40:00.191Z,19.21
2022-08-08T02:44:39.377Z,19.30
2022-08-08T02:46:38.173Z,19.28
2022-08-08T02:49:53.758Z,19.33
2022-08-08T02:52:50.958Z,19.32
2022-08-08T02:56:08.640Z,19.41
2022-08-08T02:59:56.953Z,19.43
2022-08-08T03:03:01.585Z,19.45
2022-08-08T03:06:13.262Z,19.50
2022-08-08T03:09:33.136Z,19.56
2022-08-08T03:13:01.351Z,19.63
2022-08-08T03:16:08.146Z,19.62
2022-08-08T03:18:53.899Z,19.54
2022-08-08T03:21:27.070Z,19.56
2022-08-08T03:24:12.587Z,19.64
2022-08-08T03:26:53.536Z,19.61
2022-08-08T03:29:55.031Z,19.56
2022-08-08T03:32:31.413Z,19.58
2022-08-08T03:35:01.748Z,19.57
2022-08-08T03:38:54.775Z,19.60
2022-08-08T03:40:30.651Z,19.46
2022-08-08T03:43:16.790Z,19.49
2022-08-08T03:46:05.066Z,19.50
2022-08-08T03:49:55.109Z,19.52
2022-08-08T03:51:40.540Z,19.55
2022-08-08T03:54:40.732Z,18.81
2022-08-08T03:58:30.524Z,19.43
2022-08-08T04:00:18.311Z,19.53
2022-08-08T04:02:58.291Z,18.73
2022-08-08T04:05:30.501Z,19.27
2022-08-08T04:08:10.070Z,19.01
2022-08-08T04:10:40.179Z,19.64
2022-08-08T04:13:18.900Z,19.14
2022-08-08T04:16:03.822Z,18.63
2022-08-08T04:18:48.725Z,19.42
2022-08-08T04:21:26.004Z,19.01
2022-08-08T04:24:11.666Z,19.11
2022-08-08T04:26:57.219Z,18.90
2022-08-08T04:29:33.258Z,18.39
2022-08-08T04:32:10.562Z,19.40
2022-08-08T04:34:55.639Z,18.60
2022-08-08T04:37:32.987Z,18.73
2022-08-08T04:40:12.794Z,19.28
2022-08-08T04:42:56.837Z,19.33
2022-08-08T04:45:35.010Z,19.86
2022-08-08T04:48:07.349Z,19.61
2022-08-08T04:50:44.533Z,19.39
2022-08-08T04:54:26.916Z,19.73
2022-08-08T04:56:13.662Z,20.13
2022-08-08T04:58:43.588Z,20.13
2022-08-08T05:01:19.452Z,20.29
2022-08-08T05:04:10.299Z,20.15
2022-08-08T05:06:47.084Z,20.40
2022-08-08T05:09:21.079Z,20.54
2022-08-08T05:11:56.697Z,20.47
2022-08-08T05:14:30.535Z,20.59
2022-08-08T05:17:09.051Z,20.74
2022-08-08T05:20:10.794Z,20.16
2022-08-08T05:22:38.876Z,21.33
2022-08-08T05:25:09.709Z,21.12
2022-08-08T05:27:41.455Z,22.09
2022-08-08T05:30:13.900Z,21.30
2022-08-08T05:33:03.318Z,21.30
2022-08-08T05:35:39.668Z,21.60
2022-08-08T05:38:31.592Z,21.57
2022-08-08T05:41:11.301Z,21.75
2022-08-08T05:44:03.907Z,21.55
2022-08-08T05:46:35.411Z,21.39
2022-08-08T05:49:11.372Z,21.37
2022-08-08T05:51:48.846Z,21.18
2022-08-08T05:54:49.676Z,21.19
2022-08-08T05:57:20.925Z,21.13
2022-08-08T06:00:25.373Z,21.13
2022-08-08T06:03:13.131Z,21.32
2022-08-08T06:06:01.195Z,21.57
2022-08-08T06:08:36.481Z,21.59
2022-08-08T06:11:13.361Z,21.72
2022-08-08T06:13:49.285Z,21.88
2022-08-08T06:16:27.642Z,21.93
2022-08-08T06:19:03.868Z,22.27
2022-08-08T06:21:51.771Z,22.44
2022-08-08T06:24:38.342Z,22.52
2022-08-08T06:27:13.101Z,22.52
2022-08-08T06:30:01.060Z,22.47
2022-08-08T06:32:47.603Z,22.49
2022-08-08T06:36:08.601Z,22.39
2022-08-08T06:38:18.904Z,22.45
2022-08-08T06:40:56.433Z,22.56
2022-08-08T06:43:37.115Z,22.69
2022-08-08T06:46:23.714Z,22.58
2022-08-08T06:48:57.392Z,22.32
2022-08-08T06:51:31.373Z,22.12
2022-08-08T06:54:24.917Z,22.20
2022-08-08T06:56:58.815Z,22.03
2022-08-08T06:59:34.499Z,21.85
2022-08-08T07:02:28.749Z,21.92
2022-08-08T07:05:06.996Z,22.01
2022-08-08T07:07:52.175Z,22.21
2022-08-08T07:10:28.520Z,22.22
2022-08-08T07:13:06.127Z,22.31
2022-08-08T07:16:04.879Z,22.21
2022-08-08T07:18:49.489Z,22.01
2022-08-08T07:21:24.585Z,21.88
2022-08-08T07:24:09.570Z,21.74
2022-08-08T07:26:54.169Z,21.87
2022-08-08T07:30:00.975Z,21.81
2022-08-08T07:32:17.403Z,21.73
2022-08-08T07:35:01.381Z,21.81
2022-08-08T07:37:55.454Z,21.90
2022-08-08T07:40:50.628Z,22.30
2022-08-08T07:43:36.919Z,22.61
2022-08-08T07:46:23.128Z,22.85
2022-08-08T07:49:01.189Z,22.96
2022-08-08T07:51:45.425Z,22.79
2022-08-08T07:54:43.141Z,22.27
2022-08-08T07:57:22.096Z,21.68
2022-08-08T08:00:13.355Z,21.42
2022-08-08T08:03:20.716Z,21.10
2022-08-08T08:06:01.557Z,20.86
2022-08-08T08:08:50.259Z,20.99
2022-08-08T08:11:33.836Z,21.24
2022-08-08T08:14:10.925Z,21.19
2022-08-08T08:16:50.792Z,21.18
2022-08-08T08:19:32.060Z,21.06
2022-08-08T08:22:31.271Z,20.95
2022-08-08T08:25:07.515Z,20.90
2022-08-08T08:27:46.724Z,20.91
2022-08-08T08:30:17.567Z,21.11
2022-08-08T08:32:51.807Z,21.41
2022-08-08T08:35:29.916Z,21.68
2022-08-08T08:38:18.191Z,22.24
2022-08-08T08:40:59.073Z,22.58
2022-08-08T08:43:30.845Z,22.53
2022-08-08T08:46:03.581Z,22.52
2022-08-08T08:48:49.193Z,22.66
2022-08-08T08:51:21.922Z,22.92
2022-08-08T08:53:59.193Z,23.36
2022-08-08T08:56:34.166Z,23.38
2022-08-08T08:59:15.329Z,23.77
2022-08-08T09:01:55.359Z,24.27
2022-08-08T09:04:38.527Z,24.68
2022-08-08T09:07:20.730Z,25.13
2022-08-08T09:09:55.318Z,25.44
2022-08-08T09:12:41.795Z,25.90
2022-08-08T09:15:37.020Z,26.00
2022-08-08T09:18:06.088Z,25.37
2022-08-08T09:22:00.704Z,24.72
2022-08-08T09:23:33.562Z,24.51
2022-08-08T09:26:17.893Z,24.53
2022-08-08T09:28:51.534Z,24.78
2022-08-08T09:31:56.577Z,24.79
2022-08-08T09:34:37.769Z,25.24
2022-08-08T09:37:37.345Z,25.32
2022-08-08T09:40:13.589Z,25.02
2022-08-08T09:42:51.127Z,25.12
2022-08-08T09:45:54.952Z,24.94
2022-08-08T09:48:21.403Z,25.06
2022-08-08T09:50:56.205Z,25.30
2022-08-08T09:53:56.516Z,25.36
2022-08-08T09:56:27.792Z,25.22
2022-08-08T09:59:14.908Z,25.04
2022-08-08T10:01:59.362Z,25.23
2022-08-08T10:04:41.439Z,25.60
2022-08-08T10:07:15.876Z,25.65
2022-08-08T10:10:00.015Z,25.52
2022-08-08T10:12:38.794Z,25.15
2022-08-08T10:15:25.436Z,24.95
2022-08-08T10:18:06.585Z,24.78
2022-08-08T10:20:57.646Z,24.40
2022-08-08T10:23:48.321Z,24.43
2022-08-08T10:26:30.563Z,24.39
2022-08-08T10:29:21.117Z,24.16
2022-08-08T10:32:12.431Z,23.95
2022-08-08T10:34:58.725Z,23.84
2022-08-08T10:37:34.719Z,24.03
2022-08-08T10:40:17.527Z,24.11
2022-08-08T10:42:57.145Z,24.28
2022-08-08T10:45:29.293Z,23.86
2022-08-08T10:48:13.665Z,23.59
2022-08-08T10:50:42.946Z,23.52
2022-08-08T10:53:13.431Z,23.98
2022-08-08T10:55:45.743Z,24.19
2022-08-08T10:58:18.773Z,24.38
2022-08-08T11:00:53.619Z,24.31
2022-08-08T11:04:00.932Z,24.08
2022-08-08T11:06:34.491Z,23.67
2022-08-08T11:09:15.146Z,23.49
2022-08-08T11:12:05.099Z,23.10
2022-08-08T11:14:53.145Z,22.95
2022-08-08T11:17:58.392Z,22.56
2022-08-08T11:20:18.311Z,22.48
2022-08-08T11:22:54.968Z,22.46
2022-08-08T11:25:53.449Z,22.47
2022-08-08T11:28:18.666Z,22.68
2022-08-08T11:30:53.008Z,22.79
2022-08-08T11:33:51.651Z,22.78
2022-08-08T11:36:17.763Z,23.06
2022-08-08T11:38:54.726Z,23.10
2022-08-08T11:41:27.689Z,23.25
2022-08-08T11:43:58.618Z,23.06
2022-08-08T11:46:34.064Z,23.06
2022-08-08T11:49:05.552Z,23.11
2022-08-08T11:51:49.920Z,23.08
2022-08-08T11:54:33.975Z,23.30
2022-08-08T11:57:13.837Z,23.33
2022-08-08T12:00:02.087Z,23.18
2022-08-08T12:02:54.373Z,23.06
2022-08-08T12:05:34.409Z,22.98
2022-08-08T12:08:05.957Z,22.83
2022-08-08T12:10:36.309Z,22.69
2022-08-08T12:13:09.723Z,22.70
2022-08-08T12:15:47.812Z,22.76
2022-08-08T12:18:35.400Z,22.73
2022-08-08T12:21:10.327Z,22.73
2022-08-08T12:23:51.847Z,22.54
2022-08-08T12:26:38.690Z,22.25
2022-08-08T12:29:36.216Z,22.13
2022-08-08T12:32:13.416Z,21.96
2022-08-08T12:35:13.285Z,21.91
2022-08-08T12:38:02.393Z,21.66
2022-08-08T12:40:54.399Z,22.06
2022-08-08T12:43:32.828Z,22.30
2022-08-08T12:46:19.215Z,22.40
2022-08-08T12:57:31.944Z,22.22
2022-08-08T13:00:13.532Z,22.20
2022-08-08T13:02:53.121Z,22.19
2022-08-08T13:05:26.569Z,22.13
2022-08-08T13:08:17.236Z,22.03
2022-08-08T13:10:58.285Z,22.08
2022-08-08T13:13:34.617Z,22.28
2022-08-08T13:16:19.702Z,22.42
2022-08-08T13:18:58.338Z,22.47
2022-08-08T13:21:49.045Z,22.65
2022-08-08T13:24:40.714Z,22.47
2022-08-08T13:27:15.262Z,22.31
2022-08-08T13:29:55.408Z,21.98
2022-08-08T13:32:26.252Z,21.87
2022-08-08T13:34:57.462Z,21.83
2022-08-08T13:38:05.801Z,21.64
2022-08-08T13:40:26.547Z,21.38
2022-08-08T13:42:58.571Z,21.29
2022-08-08T13:45:30.762Z,21.27
2022-08-08T13:48:01.313Z,21.22
2022-08-08T13:50:49.132Z,21.34
2022-08-08T13:53:33.793Z,21.49
2022-08-08T13:56:11.194Z,21.53
2022-08-08T13:58:56.252Z,21.80
2022-08-08T14:01:52.573Z,21.99
2022-08-08T14:04:25.300Z,21.98
2022-08-08T14:07:06.933Z,22.03
2022-08-08T14:10:05.665Z,21.96
2022-08-08T14:12:33.807Z,21.70
2022-08-08T14:15:03.388Z,21.54
2022-08-08T14:17:58.184Z,21.66
2022-08-08T14:20:55.874Z,21.52
2022-08-08T14:24:06.849Z,21.50
2022-08-08T14:26:28.029Z,21.30
2022-08-08T14:28:58.795Z,21.22
2022-08-08T14:32:05.833Z,21.10
2022-08-08T14:34:23.268Z,21.13
2022-08-08T14:36:57.230Z,21.29
2022-08-08T14:39:48.348Z,21.36
2022-08-08T14:42:22.323Z,21.53
2022-08-08T14:45:01.059Z,21.67
2022-08-08T14:47:36.197Z,21.51
2022-08-08T14:50:38.354Z,21.66
2022-08-08T14:53:07.162Z,21.51
2022-08-08T14:55:41.987Z,21.40
2022-08-08T14:58:16.600Z,21.17
2022-08-08T15:00:51.999Z,21.29
2022-08-08T15:03:21.214Z,21.33
2022-08-08T15:05:57.832Z,21.40
2022-08-08T15:08:34.880Z,21.34
2022-08-08T15:11:11.270Z,21.40
2022-08-08T15:14:00.846Z,21.38
2022-08-08T15:16:34.718Z,21.54
2022-08-08T15:19:06.960Z,21.47
2022-08-08T15:21:42.817Z,21.41
2022-08-08T15:24:14.253Z,21.51
2022-08-08T15:26:52.428Z,21.55
2022-08-08T15:29:24.222Z,21.60
2022-08-08T15:32:17.925Z,21.50
2022-08-08T15:34:44.079Z,21.44
2022-08-08T15:37:17.206Z,21.28
2022-08-08T15:39:47.903Z,21.10
2022-08-08T15:42:32.330Z,21.06
2022-08-08T15:45:02.747Z,20.81
2022-08-08T15:47:34.916Z,20.76
2022-08-08T15:50:09.618Z,20.68
2022-08-08T15:52:53.642Z,20.68
2022-08-08T15:55:25.248Z,20.58
2022-08-08T15:57:55.204Z,20.64
2022-08-08T16:00:26.908Z,20.73
2022-08-08T16:02:59.379Z,20.84
2022-08-08T16:05:35.831Z,20.82
2022-08-08T16:08:20.958Z,20.95
2022-08-08T16:13:15.517Z,21.03
2022-08-08T16:13:45.972Z,21.04
2022-08-08T16:16:18.102Z,21.05
2022-08-08T16:18:53.439Z,21.03
2022-08-08T16:21:29.323Z,20.87
2022-08-08T16:24:04.729Z,20.90
2022-08-08T16:26:36.416Z,20.83
2022-08-08T16:29:15.485Z,20.65
2022-08-08T16:31:48.864Z,20.67
2022-08-08T16:34:21.143Z,20.71
2022-08-08T16:36:54.111Z,20.72
2022-08-08T16:39:59.615Z,20.59
2022-08-08T16:42:18.509Z,20.69
2022-08-08T16:44:54.507Z,20.51
2022-08-08T16:47:40.205Z,20.50
2022-08-08T16:50:15.535Z,20.33
2022-08-08T16:55:03.547Z,20.25
2022-08-08T16:55:55.572Z,20.03
2022-08-08T16:58:34.313Z,19.95
2022-08-08T17:01:06.191Z,19.87
2022-08-08T17:04:00.638Z,20.03
2022-08-08T17:06:37.252Z,19.90
2022-08-08T17:09:15.063Z,19.83
2022-08-08T17:11:56.599Z,19.84
2022-08-08T17:14:33.868Z,19.75
2022-08-08T17:17:05.642Z,19.68
2022-08-08T17:19:56.001Z,19.64
2022-08-08T17:22:39.308Z,19.61
2022-08-08T17:25:12.078Z,19.60
2022-08-08T17:27:47.623Z,19.56
2022-08-08T17:30:27.630Z,19.54
2022-08-08T17:34:35.792Z,19.53
2022-08-08T17:35:55.680Z,19.58
2022-08-08T17:38:36.458Z,19.61
2022-08-08T17:41:06.190Z,19.64
2022-08-08T17:44:01.238Z,19.73
2022-08-08T17:46:43.075Z,19.47
2022-08-08T17:49:16.532Z,19.64
2022-08-08T17:51:53.938Z,19.63
2022-08-08T17:54:26.057Z,19.46
2022-08-08T17:56:58.757Z,19.60
2022-08-08T17:59:30.537Z,19.56
2022-08-08T18:02:11.306Z,19.55
2022-08-08T18:04:50.752Z,19.40
2022-08-08T18:08:04.063Z,19.43
2022-08-08T18:10:10.636Z,19.40
2022-08-08T18:12:40.113Z,19.39
2022-08-08T18:15:14.555Z,19.36
2022-08-08T18:18:09.882Z,19.43
2022-08-08T18:20:43.804Z,19.32
2022-08-08T18:23:23.344Z,19.33
2022-08-08T18:25:53.307Z,19.29
2022-08-08T18:28:23.525Z,19.24
2022-08-08T18:30:57.444Z,19.19
2022-08-08T18:34:12.267Z,19.10
2022-08-08T18:36:22.837Z,19.11
2022-08-08T18:38:53.916Z,19.03
2022-08-08T18:41:51.361Z,19.11
2022-08-08T18:44:12.960Z,19.13
2022-08-08T18:46:54.320Z,19.02
2022-08-08T18:49:32.220Z,18.99
2022-08-08T18:52:22.395Z,18.97
2022-08-08T18:55:01.052Z,18.96
2022-08-08T18:57:44.748Z,18.93
2022-08-08T19:00:20.170Z,18.78
2022-08-08T19:02:57.835Z,18.94
2022-08-08T19:05:38.571Z,18.95
2022-08-08T19:08:25.175Z,18.91
2022-08-08T19:11:02.282Z,18.90
2022-08-08T19:13:53.014Z,18.84
2022-08-08T19:16:28.547Z,18.85
2022-08-08T19:19:13.494Z,18.70
2022-08-08T19:21:49.920Z,18.55
2022-08-08T19:24:49.370Z,18.49
2022-08-08T19:27:10.773Z,18.43
2022-08-08T19:29:42.190Z,18.31
2022-08-08T19:32:13.165Z,18.26
2022-08-08T19:34:51.520Z,18.24
2022-08-08T19:37:42.314Z,18.23
2022-08-08T19:40:14.645Z,18.14
2022-08-08T19:42:47.228Z,18.20
2022-08-08T19:45:58.861Z,18.16
2022-08-08T19:48:29.096Z,18.20
2022-08-08T19:51:01.731Z,18.15
2022-08-08T19:53:51.358Z,18.17
2022-08-08T19:56:25.709Z,18.16
2022-08-08T19:59:10.167Z,18.26
2022-08-08T20:02:00.935Z,18.21
2022-08-08T20:04:34.089Z,18.26
2022-08-08T20:08:39.312Z,18.23
2022-08-08T20:09:58.507Z,18.17
2022-08-08T20:12:32.786Z,18.06
2022-08-08T20:15:14.855Z,17.98
2022-08-08T20:17:48.116Z,17.96
2022-08-08T20:20:20.479Z,17.92
2022-08-08T20:22:56.080Z,17.59
2022-08-08T20:25:29.876Z,17.55
2022-08-08T20:28:05.703Z,17.62
2022-08-08T20:30:53.427Z,17.57
2022-08-08T20:35:58.011Z,17.40
2022-08-08T20:38:37.089Z,17.53
2022-08-08T20:41:17.479Z,17.41
2022-08-08T20:43:50.227Z,17.58
2022-08-08T20:46:25.314Z,17.54
2022-08-08T20:48:58.538Z,17.59
2022-08-08T20:51:32.328Z,17.53
2022-08-08T20:54:14.124Z,17.53
2022-08-08T20:57:04.006Z,17.47
2022-08-08T20:59:41.031Z,17.51
2022-08-08T21:02:12.501Z,17.42
2022-08-08T21:04:43.121Z,17.34
2022-08-08T21:07:17.301Z,17.33
2022-08-08T21:10:13.002Z,17.31
2022-08-08T21:12:45.960Z,17.21
2022-08-08T21:16:04.970Z,17.10
2022-08-08T21:18:06.171Z,17.15
2022-08-08T21:20:36.455Z,17.21
2022-08-08T21:23:09.310Z,17.34
2022-08-08T21:25:40.817Z,17.32
2022-08-08T21:28:15.960Z,17.32
2022-08-08T21:30:51.909Z,17.30
2022-08-08T21:33:22.318Z,17.24
2022-08-08T21:36:18.258Z,17.20
2022-08-08T21:38:41.085Z,17.23
2022-08-08T21:41:28.795Z,17.19
2022-08-08T21:44:04.505Z,17.26
2022-08-08T21:48:06.186Z,17.25
2022-08-08T21:49:23.789Z,17.36
2022-08-08T21:54:20.243Z,17.32
2022-08-08T21:55:01.719Z,17.27
2022-08-08T21:57:42.902Z,17.18
2022-08-08T22:00:26.080Z,16.69
2022-08-08T22:02:55.712Z,16.18
2022-08-08T22:05:25.045Z,15.79
2022-08-08T22:08:00.313Z,15.71
2022-08-08T22:10:32.643Z,15.76
2022-08-08T22:13:18.565Z,15.71
2022-08-08T22:16:00.427Z,15.68
2022-08-08T22:18:33.121Z,15.77
2022-08-08T22:21:14.648Z,15.83
2022-08-08T22:23:51.469Z,15.76
2022-08-08T22:26:29.390Z,15.78
2022-08-08T22:29:57.074Z,15.85
2022-08-08T22:32:01.526Z,15.87
2022-08-08T22:34:39.456Z,15.91
2022-08-08T22:37:14.802Z,15.87
2022-08-08T22:40:00.324Z,16.03
2022-08-08T22:42:34.457Z,16.03
2022-08-08T22:45:12.620Z,16.16
2022-08-08T22:47:46.863Z,16.24
2022-08-08T22:50:25.961Z,16.27
2022-08-08T22:53:22.551Z,16.30
2022-08-08T22:55:58.034Z,16.25
2022-08-08T22:58:31.245Z,16.22
2022-08-08T23:01:30.588Z,16.24
2022-08-08T23:03:55.982Z,16.22
2022-08-08T23:06:25.716Z,16.41
2022-08-08T23:09:00.200Z,16.33
2022-08-08T23:12:17.761Z,16.31
2022-08-08T23:14:22.051Z,16.31
2022-08-08T23:16:59.387Z,16.40
2022-08-08T23:19:30.713Z,16.35
2022-08-08T23:22:01.876Z,16.31
2022-08-08T23:24:36.218Z,16.42
2022-08-08T23:27:06.643Z,16.40
2022-08-08T23:29:35.862Z,16.39
2022-08-08T23:32:10.230Z,16.38
2022-08-08T23:34:49.640Z,16.39
2022-08-08T23:38:00.653Z,16.40
2022-08-08T23:40:22.688Z,16.47
2022-08-08T23:42:52.333Z,16.52
2022-08-08T23:49:00.078Z,16.57
2022-08-08T23:49:02.865Z,16.46
2022-08-08T23:51:02.285Z,16.62
2022-08-08T23:54:05.358Z,16.53
2022-08-08T23:56:32.383Z,16.45
2022-08-08T23:59:04.322Z,16.47
